Portada
METAR-TAF:

METAR-TAF

Aeroports :

Lar, Iran

latitud: 27-40-26N, longitud: 054-22-53E, altitud: 792 m

Observació

L'informe es va fer fa 1 hora i 12 minuts, a les 02:00 UTC
Vent calma
Temperatura 21°C
Humitat 69%
Pressió 1009 hPa
Visibilitat 10 km o més
sense núvols per sota de 1500 mi sense presència de cumulonimbus.

METAR: OISL 300200Z 00000KT CAVOK 21/15 Q1009 A2980 NOSIG

Hora: 06:42 (03:12 UTC)

Pronòstic

L'informe es va fer fa 4 hores i 12 minuts, a les 23:00 UTC
Pronòstic vàlid del 30 a les 00 UTC al 01 a les 06 UTC
Vent 6 kt del Est/Sud-Est
Visibilitat: 8000 m
Temporalment
l' 30 a les 09 UTC al 30 a les 15 UTC
Vent 16 kt del Sud/Sud-Est
Escasses núvols a una alçada de 3500 ft, Cumulus congestus.
Núvols disperses a una alçada de 4000 ft
Núvols disperses a una alçada de 10000 ft

TAF: OISL 292300Z 3000/0106 12006KT 8000 NSC TEMPO 3009/3015 16016KT FEW035TCU SCT040 SCT100

Observacions i pronòstics meteorològics de més de 4000 aeroports (METAR i TAF).

Les estacions disponibles són els punts grocs i vermells al mapa.

Posi el ratolí al punt desitjat per veure el nom de l'estació.

Feu clic per veure les observacions i els pronòstics meteorològics.

Per canviar el mapa: feu clic els botons verds amb una creu de color negre per apropar; al botó verd amb un guió per allunyar la imatge; o en les fletxes verdes per a mapes adjacents.


METAR-TAF: